createdAt,value
2022-12-08T00:00:20.017Z,94.90
2022-12-08T00:02:49.339Z,94.60
2022-12-08T00:05:35.768Z,94.80
2022-12-08T00:08:22.124Z,94.50
2022-12-08T00:10:51.357Z,94.50
2022-12-08T00:13:20.351Z,94.40
2022-12-08T00:15:50.850Z,94.20
2022-12-08T00:18:20.050Z,94.50
2022-12-08T00:20:55.827Z,94.50
2022-12-08T00:23:25.064Z,94.50
2022-12-08T00:25:54.176Z,94.50
2022-12-08T00:28:23.349Z,94.60
2022-12-08T00:30:53.869Z,94.80
2022-12-08T00:33:23.224Z,94.70
2022-12-08T00:35:52.157Z,94.90
2022-12-08T00:38:22.121Z,94.50
2022-12-08T00:40:51.096Z,94.40
2022-12-08T00:43:20.229Z,94.50
2022-12-08T00:45:49.305Z,94.60
2022-12-08T00:48:19.944Z,94.70
2022-12-08T00:50:48.961Z,94.70
2022-12-08T00:53:18.145Z,94.80
2022-12-08T00:55:47.076Z,95.20
2022-12-08T00:58:16.298Z,95.30
2022-12-08T01:00:45.911Z,95.40
2022-12-08T01:03:15.285Z,95.40
2022-12-08T01:05:45.731Z,95.60
2022-12-08T01:08:14.834Z,95.80
2022-12-08T01:10:44.774Z,95.80
2022-12-08T01:13:13.957Z,95.80
2022-12-08T01:15:42.914Z,96.20
2022-12-08T01:18:11.938Z,96.50
2022-12-08T01:20:40.988Z,96.70
2022-12-08T01:23:11.474Z,96.90
2022-12-08T01:25:40.604Z,96.80
2022-12-08T01:28:09.686Z,96.80
2022-12-08T01:30:40.644Z,96.50
2022-12-08T01:33:09.736Z,96.30
2022-12-08T01:35:40.656Z,96.10
2022-12-08T01:38:11.242Z,96.10
2022-12-08T01:40:40.306Z,96.20
2022-12-08T01:43:14.546Z,96.00
2022-12-08T01:45:43.668Z,95.90
2022-12-08T01:48:19.720Z,95.90
2022-12-08T01:50:49.804Z,96.00
2022-12-08T01:53:24.478Z,96.00
2022-12-08T01:55:58.021Z,95.50
2022-12-08T01:58:31.268Z,95.20
2022-12-08T02:01:00.504Z,95.30
2022-12-08T02:03:33.336Z,95.50
2022-12-08T02:06:03.098Z,95.10
2022-12-08T02:08:34.015Z,94.70
2022-12-08T02:11:03.194Z,94.70
2022-12-08T02:13:32.907Z,94.90
2022-12-08T02:16:11.549Z,94.80
2022-12-08T02:19:28.559Z,94.80
2022-12-08T02:21:52.733Z,94.60
2022-12-08T02:24:31.973Z,94.60
2022-12-08T02:27:31.431Z,94.50
2022-12-08T02:30:18.855Z,94.40
2022-12-08T02:33:21.987Z,94.20
2022-12-08T02:35:59.470Z,94.10
2022-12-08T02:38:38.462Z,94.50
2022-12-08T02:41:27.224Z,94.50
2022-12-08T02:44:02.951Z,94.50
2022-12-08T02:46:37.425Z,94.60
2022-12-08T02:49:07.722Z,94.50
2022-12-08T02:51:38.344Z,94.60
2022-12-08T02:54:07.693Z,94.70
2022-12-08T02:56:52.107Z,94.80
2022-12-08T02:59:34.197Z,94.90
2022-12-08T03:02:19.298Z,95.20
2022-12-08T03:04:59.122Z,95.10
2022-12-08T03:07:34.726Z,95.30
2022-12-08T03:10:09.595Z,95.10
2022-12-08T03:12:45.206Z,95.40
2022-12-08T03:15:18.465Z,95.50
2022-12-08T03:17:52.430Z,95.60
2022-12-08T03:20:24.875Z,95.40
2022-12-08T03:22:58.281Z,95.60
2022-12-08T03:25:29.924Z,95.50
2022-12-08T03:27:59.396Z,95.60
2022-12-08T03:30:30.130Z,95.70
2022-12-08T03:33:04.925Z,95.80
2022-12-08T03:35:36.749Z,95.90
2022-12-08T03:38:09.456Z,96.00
2022-12-08T03:40:39.538Z,96.10
2022-12-08T03:43:09.006Z,96.20
2022-12-08T03:45:38.206Z,96.20
2022-12-08T03:48:07.789Z,96.10
2022-12-08T03:50:36.728Z,96.20
2022-12-08T03:53:07.398Z,96.10
2022-12-08T03:55:36.559Z,96.00
2022-12-08T03:58:05.519Z,95.90
2022-12-08T04:00:34.716Z,95.80
2022-12-08T04:03:04.882Z,95.70
2022-12-08T04:05:34.103Z,95.50
2022-12-08T04:08:03.262Z,95.50
2022-12-08T04:10:33.800Z,95.50
2022-12-08T04:13:02.938Z,95.40
2022-12-08T04:15:31.818Z,95.30
2022-12-08T04:18:00.891Z,95.00
2022-12-08T04:20:29.953Z,95.30
2022-12-08T04:22:59.096Z,94.50
2022-12-08T04:25:28.321Z,94.70
2022-12-08T04:27:58.916Z,94.60
2022-12-08T04:30:28.414Z,94.70
2022-12-08T04:32:57.397Z,94.90
2022-12-08T04:35:26.555Z,95.10
2022-12-08T04:37:55.533Z,94.80
2022-12-08T04:40:24.626Z,94.60
2022-12-08T04:42:53.709Z,94.80
2022-12-08T04:45:24.262Z,94.90
2022-12-08T04:47:53.426Z,94.60
2022-12-08T04:50:22.490Z,94.80
2022-12-08T04:52:51.589Z,94.70
2022-12-08T04:55:20.920Z,94.60
2022-12-08T04:57:50.305Z,94.60
2022-12-08T05:00:20.231Z,94.40
2022-12-08T05:02:50.848Z,94.60
2022-12-08T05:05:20.103Z,94.70
2022-12-08T05:07:49.076Z,94.60
2022-12-08T05:10:18.407Z,94.50
2022-12-08T05:12:47.392Z,94.30
2022-12-08T05:15:16.726Z,94.40
2022-12-08T05:17:46.856Z,94.10
2022-12-08T05:20:17.584Z,94.20
2022-12-08T05:22:46.825Z,93.90
2022-12-08T05:25:15.954Z,94.20
2022-12-08T05:27:45.189Z,94.20
2022-12-08T05:30:14.481Z,94.20
2022-12-08T05:32:43.641Z,94.70
2022-12-08T05:35:13.272Z,94.60
2022-12-08T05:37:43.706Z,94.60
2022-12-08T05:40:13.113Z,94.40
2022-12-08T05:42:42.273Z,94.40
2022-12-08T05:45:12.336Z,93.90
2022-12-08T05:47:41.500Z,93.80
2022-12-08T05:50:10.830Z,93.90
2022-12-08T05:52:39.931Z,94.20
2022-12-08T05:55:11.636Z,94.10
2022-12-08T05:57:40.714Z,94.00
2022-12-08T06:00:10.871Z,94.10
2022-12-08T06:02:43.235Z,94.10
2022-12-08T06:05:12.477Z,94.30
2022-12-08T06:07:41.772Z,94.10
2022-12-08T06:10:14.315Z,94.10
2022-12-08T06:12:43.353Z,94.20
2022-12-08T06:15:13.023Z,94.80
2022-12-08T06:17:42.146Z,95.00
2022-12-08T06:20:11.852Z,95.00
2022-12-08T06:22:40.891Z,95.40
2022-12-08T06:25:12.129Z,94.90
2022-12-08T06:27:41.140Z,94.80
2022-12-08T06:30:10.854Z,94.90
2022-12-08T06:32:40.007Z,94.90
2022-12-08T06:35:10.055Z,95.00
2022-12-08T06:37:39.510Z,94.70
2022-12-08T06:40:12.157Z,94.70
2022-12-08T06:42:47.356Z,94.60
2022-12-08T06:45:18.480Z,94.50
2022-12-08T06:47:47.781Z,94.40
2022-12-08T06:50:17.038Z,94.50
2022-12-08T06:52:56.978Z,94.40
2022-12-08T06:58:23.021Z,94.80
2022-12-08T07:00:52.108Z,94.70
2022-12-08T07:03:21.245Z,94.50
2022-12-08T07:05:50.378Z,94.50
2022-12-08T07:08:19.995Z,94.40
2022-12-08T07:10:50.537Z,94.30
2022-12-08T07:13:19.635Z,94.30
2022-12-08T07:15:48.876Z,94.20
2022-12-08T07:18:17.954Z,94.00
2022-12-08T07:20:47.068Z,94.00
2022-12-08T07:23:16.239Z,94.10
2022-12-08T07:25:45.290Z,94.10
2022-12-08T07:28:15.639Z,94.00
2022-12-08T07:30:44.758Z,93.50
2022-12-08T07:33:13.978Z,93.30
2022-12-08T07:35:48.983Z,93.10
2022-12-08T07:38:18.540Z,93.10
2022-12-08T07:40:47.906Z,92.90
2022-12-08T07:43:20.681Z,92.30
2022-12-08T07:45:50.387Z,92.50
2022-12-08T07:48:19.941Z,92.30
2022-12-08T07:50:49.487Z,92.10
2022-12-08T07:53:18.853Z,91.90
2022-12-08T07:55:48.050Z,91.80
2022-12-08T07:58:17.131Z,91.80
2022-12-08T08:00:47.673Z,91.80
2022-12-08T08:03:18.044Z,91.30
2022-12-08T08:05:49.442Z,90.90
2022-12-08T08:08:18.791Z,91.20
2022-12-08T08:10:48.609Z,90.80
2022-12-08T08:13:17.715Z,90.90
2022-12-08T08:15:48.479Z,90.60
2022-12-08T08:18:17.704Z,90.20
2022-12-08T08:20:46.669Z,90.10
2022-12-08T08:23:15.782Z,90.00
2022-12-08T08:25:44.832Z,89.50
2022-12-08T08:28:15.394Z,89.70
2022-12-08T08:30:44.646Z,90.00
2022-12-08T08:33:15.527Z,89.70
2022-12-08T08:35:44.753Z,89.50
2022-12-08T08:38:13.980Z,89.40
2022-12-08T08:40:43.179Z,88.40
2022-12-08T08:43:34.290Z,87.60
2022-12-08T08:46:07.019Z,87.00
2022-12-08T08:48:37.757Z,87.60
2022-12-08T08:51:11.498Z,86.80
2022-12-08T08:53:41.105Z,86.10
2022-12-08T08:56:12.465Z,85.50
2022-12-08T08:58:41.703Z,84.60
2022-12-08T09:01:10.733Z,83.90
2022-12-08T09:03:41.536Z,83.10
2022-12-08T09:06:10.811Z,82.20
2022-12-08T09:08:39.957Z,81.80
2022-12-08T09:11:09.641Z,81.50
2022-12-08T09:13:39.211Z,80.50
2022-12-08T09:16:11.041Z,80.20
2022-12-08T09:18:42.452Z,79.10
2022-12-08T09:21:13.327Z,78.60
2022-12-08T09:23:42.572Z,78.30
2022-12-08T09:26:12.120Z,77.70
2022-12-08T09:28:46.487Z,77.00
2022-12-08T09:31:15.944Z,76.70
2022-12-08T09:33:46.720Z,77.10
2022-12-08T09:36:16.902Z,76.30
2022-12-08T09:38:46.813Z,74.80
2022-12-08T09:41:19.454Z,75.50
2022-12-08T09:44:00.266Z,74.80
2022-12-08T09:46:32.179Z,73.70
2022-12-08T09:49:04.859Z,72.70
2022-12-08T09:51:39.184Z,73.50
2022-12-08T09:54:13.183Z,71.20
2022-12-08T09:56:42.519Z,70.60
2022-12-08T09:59:24.197Z,70.40
2022-12-08T10:01:54.257Z,67.20
2022-12-08T10:04:27.876Z,67.60
2022-12-08T10:07:08.241Z,66.10
2022-12-08T10:09:42.425Z,65.10
2022-12-08T10:12:20.246Z,63.40
2022-12-08T10:14:54.762Z,62.40
2022-12-08T10:17:27.208Z,62.40
2022-12-08T10:20:03.571Z,61.80
2022-12-08T10:22:39.868Z,62.40
2022-12-08T10:25:18.290Z,61.50
2022-12-08T10:27:50.169Z,60.80
2022-12-08T10:30:21.910Z,60.10
2022-12-08T10:32:54.466Z,60.90
2022-12-08T10:35:25.626Z,61.20
2022-12-08T10:37:59.202Z,60.20
2022-12-08T10:40:31.160Z,59.00
2022-12-08T10:43:01.264Z,58.10
2022-12-08T10:45:32.880Z,58.60
2022-12-08T10:48:04.426Z,58.30
2022-12-08T10:50:37.108Z,58.40
2022-12-08T10:53:14.965Z,59.30
2022-12-08T10:55:45.893Z,59.00
2022-12-08T10:58:29.473Z,59.10
2022-12-08T11:01:02.266Z,59.10
2022-12-08T11:03:34.332Z,59.30
2022-12-08T11:06:16.402Z,59.30
2022-12-08T11:08:52.058Z,59.20
2022-12-08T11:11:29.028Z,60.60
2022-12-08T11:13:58.899Z,60.20
2022-12-08T11:16:29.265Z,60.50
2022-12-08T11:18:59.634Z,61.30
2022-12-08T11:21:39.130Z,61.60
2022-12-08T11:24:26.421Z,62.60
2022-12-08T11:27:02.531Z,62.20
2022-12-08T11:29:34.302Z,61.80
2022-12-08T11:32:06.821Z,62.90
2022-12-08T11:34:40.937Z,62.70
2022-12-08T11:37:20.975Z,63.00
2022-12-08T11:39:56.862Z,62.20
2022-12-08T11:42:34.528Z,62.50
2022-12-08T11:45:09.043Z,62.50
2022-12-08T11:47:44.634Z,61.80
2022-12-08T11:50:22.388Z,62.40
2022-12-08T11:52:54.624Z,60.10
2022-12-08T11:55:40.690Z,57.50
2022-12-08T11:58:19.530Z,54.30
2022-12-08T12:00:48.894Z,55.10
2022-12-08T12:03:29.904Z,54.20
2022-12-08T12:06:54.146Z,53.50
2022-12-08T12:09:33.355Z,53.40
2022-12-08T12:12:16.083Z,52.50
2022-12-08T12:15:08.222Z,52.70
2022-12-08T12:17:45.208Z,53.60
2022-12-08T12:20:20.262Z,53.50
2022-12-08T12:22:58.341Z,54.80
2022-12-08T12:25:29.674Z,55.00
2022-12-08T12:28:02.289Z,56.20
2022-12-08T12:30:53.694Z,56.80
2022-12-08T12:33:24.341Z,56.30
2022-12-08T12:35:57.096Z,56.40
2022-12-08T12:38:49.258Z,56.50
2022-12-08T12:41:25.652Z,56.70
2022-12-08T12:44:24.433Z,57.30
2022-12-08T12:46:59.130Z,57.40
2022-12-08T12:49:53.613Z,56.80
2022-12-08T12:52:55.379Z,56.70
2022-12-08T12:55:28.527Z,55.70
2022-12-08T12:58:00.575Z,56.10
2022-12-08T13:00:30.058Z,59.50
2022-12-08T13:03:00.243Z,61.10
2022-12-08T13:05:32.225Z,62.80
2022-12-08T13:08:03.803Z,62.80
2022-12-08T13:10:35.298Z,63.60
2022-12-08T13:13:18.788Z,62.50
2022-12-08T13:15:53.113Z,61.30
2022-12-08T13:18:25.573Z,59.70
2022-12-08T13:20:58.912Z,62.00
2022-12-08T13:23:31.685Z,62.60
2022-12-08T13:26:17.570Z,60.90
2022-12-08T13:29:25.183Z,59.50
2022-12-08T13:31:55.717Z,61.60
2022-12-08T13:34:31.953Z,61.70
2022-12-08T13:37:26.793Z,61.00
2022-12-08T13:40:00.498Z,61.10
2022-12-08T13:42:35.157Z,61.50
2022-12-08T13:45:33.583Z,61.60
2022-12-08T13:48:30.133Z,62.50
2022-12-08T13:57:07.128Z,68.20
2022-12-08T13:59:38.007Z,69.30
2022-12-08T14:02:19.934Z,70.20
2022-12-08T14:07:40.519Z,71.60
2022-12-08T14:10:11.451Z,72.50
2022-12-08T14:12:42.091Z,73.20
2022-12-08T14:15:16.877Z,73.20
2022-12-08T14:17:53.817Z,73.90
2022-12-08T14:20:27.739Z,75.00
2022-12-08T14:22:57.267Z,75.90
2022-12-08T14:25:27.089Z,76.90
2022-12-08T14:28:01.263Z,77.30
2022-12-08T14:30:33.521Z,78.10
2022-12-08T14:33:05.625Z,78.60
2022-12-08T14:35:35.982Z,78.90
2022-12-08T14:38:07.013Z,78.80
2022-12-08T14:40:37.757Z,77.80
2022-12-08T14:43:15.089Z,77.10
2022-12-08T14:45:53.619Z,78.70
2022-12-08T14:48:27.138Z,82.00
2022-12-08T14:51:02.021Z,84.60
2022-12-08T14:53:39.878Z,85.70
2022-12-08T14:56:15.958Z,87.10
2022-12-08T14:58:45.237Z,85.90
2022-12-08T15:01:17.199Z,81.60
2022-12-08T15:03:51.200Z,80.30
2022-12-08T15:06:23.611Z,80.10
2022-12-08T15:08:56.040Z,79.80
2022-12-08T15:11:42.894Z,81.10
2022-12-08T15:14:29.120Z,82.60
2022-12-08T15:16:58.190Z,84.30
2022-12-08T15:19:31.187Z,85.10
2022-12-08T15:22:09.249Z,85.90
2022-12-08T15:24:38.360Z,87.90
2022-12-08T15:27:08.351Z,88.60
2022-12-08T15:29:37.474Z,89.30
2022-12-08T15:32:11.257Z,90.20
2022-12-08T15:34:41.826Z,90.90
2022-12-08T15:37:20.613Z,91.20
2022-12-08T15:39:49.833Z,91.10
2022-12-08T15:42:18.864Z,91.30
2022-12-08T15:44:48.167Z,92.30
2022-12-08T15:47:19.383Z,93.00
2022-12-08T15:49:51.345Z,93.40
2022-12-08T15:52:22.170Z,93.20
2022-12-08T15:54:51.336Z,93.50
2022-12-08T15:58:04.026Z,94.30
2022-12-08T16:00:51.867Z,94.90
2022-12-08T16:09:19.818Z,96.90
2022-12-08T16:12:08.977Z,97.00
2022-12-08T16:17:29.877Z,97.40
2022-12-08T16:20:00.137Z,97.60
2022-12-08T16:25:23.688Z,97.30
2022-12-08T16:28:05.262Z,97.30
2022-12-08T16:30:44.029Z,97.40
2022-12-08T16:33:16.203Z,97.60
2022-12-08T16:35:45.837Z,97.40
2022-12-08T16:38:17.797Z,97.50
2022-12-08T16:41:05.116Z,97.70
2022-12-08T16:43:35.776Z,98.00
2022-12-08T16:46:05.185Z,97.70
2022-12-08T16:48:34.340Z,97.60
2022-12-08T16:51:05.160Z,97.50
2022-12-08T16:53:38.561Z,97.60
2022-12-08T16:56:13.243Z,98.00
2022-12-08T16:58:45.889Z,98.10
2022-12-08T17:01:20.977Z,98.40
2022-12-08T17:04:14.715Z,98.90
2022-12-08T17:06:44.395Z,99.70
2022-12-08T17:09:21.847Z,99.90
2022-12-08T17:11:53.737Z,99.90
2022-12-08T17:14:28.241Z,99.90
2022-12-08T17:16:59.195Z,99.90
2022-12-08T17:19:29.770Z,99.90
2022-12-08T17:22:11.048Z,99.90
2022-12-08T17:24:46.093Z,99.90
2022-12-08T17:27:17.330Z,99.90
2022-12-08T17:29:50.906Z,99.90
2022-12-08T17:32:20.745Z,99.90
2022-12-08T17:34:52.329Z,99.90
2022-12-08T17:37:24.325Z,99.90
2022-12-08T17:39:56.616Z,99.90
2022-12-08T17:42:27.750Z,99.90
2022-12-08T17:44:59.696Z,99.90
2022-12-08T17:47:29.448Z,99.90
2022-12-08T17:49:58.483Z,99.90
2022-12-08T17:52:27.726Z,99.90
2022-12-08T17:54:58.301Z,99.90
2022-12-08T17:57:27.356Z,99.90
2022-12-08T17:59:56.608Z,99.90
2022-12-08T18:02:25.720Z,99.90
2022-12-08T18:04:54.944Z,99.90
2022-12-08T18:07:23.994Z,99.90
2022-12-08T18:09:53.107Z,99.90
2022-12-08T18:12:24.167Z,99.90
2022-12-08T18:14:53.319Z,99.90
2022-12-08T18:17:22.292Z,99.90
2022-12-08T18:19:51.470Z,99.90
2022-12-08T18:22:20.744Z,99.90
2022-12-08T18:24:49.761Z,99.90
2022-12-08T18:27:19.856Z,99.90
2022-12-08T18:29:51.294Z,99.90
2022-12-08T18:32:24.459Z,99.90
2022-12-08T18:34:56.806Z,99.90
2022-12-08T18:37:27.857Z,99.90
2022-12-08T18:39:58.943Z,99.90
2022-12-08T18:42:31.137Z,99.90
2022-12-08T18:45:06.692Z,99.90
2022-12-08T18:47:39.877Z,99.90
2022-12-08T18:50:13.364Z,99.90
2022-12-08T18:52:46.852Z,99.90
2022-12-08T18:55:24.941Z,99.90
2022-12-08T18:57:59.339Z,99.90
2022-12-08T19:00:29.828Z,99.90
2022-12-08T19:02:58.942Z,99.90
2022-12-08T19:05:28.085Z,99.90
2022-12-08T19:07:57.401Z,99.90
2022-12-08T19:10:26.509Z,99.90
2022-12-08T19:12:56.142Z,99.90
2022-12-08T19:15:25.159Z,99.90
2022-12-08T19:17:55.716Z,99.90
2022-12-08T19:20:24.829Z,99.90
2022-12-08T19:22:54.019Z,99.90
2022-12-08T19:25:23.593Z,99.90
2022-12-08T19:27:52.732Z,99.90
2022-12-08T19:30:22.421Z,99.90
2022-12-08T19:32:53.815Z,99.90
2022-12-08T19:35:26.976Z,99.90
2022-12-08T19:37:57.933Z,99.90
2022-12-08T19:40:45.648Z,99.90
2022-12-08T19:43:49.939Z,99.90
2022-12-08T19:46:22.285Z,99.80
2022-12-08T19:48:56.630Z,99.20
2022-12-08T19:51:29.244Z,99.30
2022-12-08T19:53:59.533Z,99.30
2022-12-08T19:56:29.647Z,98.90
2022-12-08T19:58:58.757Z,98.90
2022-12-08T20:01:28.055Z,99.00
2022-12-08T20:04:13.317Z,99.20
2022-12-08T20:06:47.088Z,98.80
2022-12-08T20:09:16.545Z,98.00
2022-12-08T20:11:45.614Z,97.90
2022-12-08T20:14:14.894Z,97.60
2022-12-08T20:16:43.922Z,97.60
2022-12-08T20:19:12.990Z,97.80
2022-12-08T20:21:43.895Z,97.60
2022-12-08T20:24:13.083Z,97.90
2022-12-08T20:26:42.093Z,97.60
2022-12-08T20:29:12.001Z,97.40
2022-12-08T20:31:41.123Z,97.30
2022-12-08T20:34:16.541Z,97.80
2022-12-08T20:36:47.371Z,97.40
2022-12-08T20:39:19.509Z,97.30
2022-12-08T20:41:49.319Z,97.10
2022-12-08T20:44:18.316Z,97.00
2022-12-08T20:46:49.580Z,97.40
2022-12-08T20:49:18.990Z,97.60
2022-12-08T20:51:49.988Z,97.60
2022-12-08T20:54:19.285Z,97.70
2022-12-08T20:56:48.842Z,97.30
2022-12-08T20:59:18.930Z,97.60
2022-12-08T21:01:48.308Z,97.80
2022-12-08T21:04:17.623Z,97.40
2022-12-08T21:06:46.875Z,97.20
2022-12-08T21:09:17.676Z,96.90
2022-12-08T21:11:47.241Z,97.00
2022-12-08T21:14:16.494Z,97.30
2022-12-08T21:16:45.611Z,97.60
2022-12-08T21:19:14.930Z,97.90
2022-12-08T21:21:46.131Z,98.00
2022-12-08T21:24:17.228Z,98.00
2022-12-08T21:26:48.106Z,97.90
2022-12-08T21:29:17.419Z,97.90
2022-12-08T21:31:46.580Z,97.70
2022-12-08T21:34:15.900Z,97.60
2022-12-08T21:36:45.163Z,97.70
2022-12-08T21:39:14.349Z,97.70
2022-12-08T21:42:02.245Z,97.40
2022-12-08T21:44:31.529Z,97.30
2022-12-08T21:47:00.902Z,97.30
2022-12-08T21:49:30.195Z,97.30
2022-12-08T21:51:59.560Z,97.00
2022-12-08T21:54:28.672Z,97.20
2022-12-08T21:56:59.376Z,97.50
2022-12-08T21:59:28.495Z,97.40
2022-12-08T22:01:57.644Z,97.60
2022-12-08T22:04:27.062Z,97.50
2022-12-08T22:06:56.125Z,97.10
2022-12-08T22:09:25.278Z,97.30
2022-12-08T22:11:54.629Z,97.30
2022-12-08T22:14:25.331Z,97.50
2022-12-08T22:16:54.485Z,97.70
2022-12-08T22:19:24.792Z,97.30
2022-12-08T22:21:55.108Z,97.50
2022-12-08T22:24:24.548Z,97.50
2022-12-08T22:26:54.071Z,97.30
2022-12-08T22:29:24.648Z,97.40
2022-12-08T22:31:53.768Z,97.40
2022-12-08T22:34:23.396Z,97.20
2022-12-08T22:36:52.349Z,97.30
2022-12-08T22:39:21.271Z,97.00
2022-12-08T22:41:50.502Z,96.90
2022-12-08T22:44:19.501Z,97.20
2022-12-08T22:46:50.183Z,96.80
2022-12-08T22:49:19.275Z,96.30
2022-12-08T22:51:48.419Z,96.50
2022-12-08T22:54:17.536Z,96.70
2022-12-08T22:56:46.575Z,96.40
2022-12-08T22:59:15.636Z,97.10
2022-12-08T23:01:45.365Z,96.90
2022-12-08T23:04:17.974Z,96.80
2022-12-08T23:06:47.755Z,97.10
2022-12-08T23:09:16.800Z,97.50
2022-12-08T23:11:46.287Z,98.10
2022-12-08T23:14:16.681Z,98.90
2022-12-08T23:16:45.983Z,99.80
2022-12-08T23:19:16.589Z,99.90
2022-12-08T23:21:45.773Z,99.30
2022-12-08T23:24:14.807Z,99.10
2022-12-08T23:26:44.383Z,99.60
2022-12-08T23:29:13.476Z,99.80
2022-12-08T23:31:42.714Z,99.70
2022-12-08T23:34:12.130Z,99.90
2022-12-08T23:36:42.876Z,99.90
2022-12-08T23:39:13.308Z,99.90
2022-12-08T23:41:42.376Z,99.90
2022-12-08T23:44:12.407Z,99.90
2022-12-08T23:46:41.691Z,99.90
2022-12-08T23:49:11.020Z,99.90
2022-12-08T23:51:42.389Z,99.90
2022-12-08T23:54:11.625Z,99.90
2022-12-08T23:56:40.775Z,99.90
2022-12-08T23:59:10.460Z,99.90
